Time;durP1;ratioP1;P1;durP2;ratioP2;P2;SDS_P1;SDS_P2;PMS_P1;PMS_P2;Temp;Humidity;BMP_temperature;BMP_pressure;BME280_temperature;BME280_humidity;BME280_pressure;Samples;Min_cycle;Max_cycle;Signal;HPM_P1;HPM_P2
2021/08/24 00:01:57;;;;;;;4.47;2.50;;;20.40;99.90;;;;;;5000582;28;20137;-57
2021/08/24 00:04:23;;;;;;;3.38;2.45;;;20.40;99.90;;;;;;4983036;28;20106;-58
2021/08/24 00:06:48;;;;;;;2.97;2.45;;;20.40;99.90;;;;;;5034151;28;20453;-55
2021/08/24 00:09:14;;;;;;;2.97;2.45;;;20.40;99.90;;;;;;5016695;28;20413;-55
2021/08/24 00:11:40;;;;;;;3.60;2.50;;;20.50;99.90;;;;;;5033854;28;20033;-56
2021/08/24 00:14:07;;;;;;;7.63;3.00;;;20.40;99.90;;;;;;5017477;28;20053;-58
2021/08/24 00:16:34;;;;;;;4.80;2.53;;;20.30;99.90;;;;;;5034114;28;20041;-55
2021/08/24 00:18:59;;;;;;;3.95;2.20;;;20.40;99.90;;;;;;5036343;28;20079;-56
2021/08/24 00:21:26;;;;;;;4.80;2.58;;;20.40;99.90;;;;;;5055967;28;20025;-56
2021/08/24 00:23:52;;;;;;;4.78;2.42;;;20.60;99.90;;;;;;5056140;28;20025;-56
2021/08/24 00:26:18;;;;;;;2.60;2.20;;;20.60;99.90;;;;;;5055839;28;20533;-56
2021/08/24 00:28:44;;;;;;;6.72;2.58;;;20.50;99.90;;;;;;5055822;28;20029;-54
2021/08/24 00:31:10;;;;;;;3.55;2.60;;;20.50;99.90;;;;;;5035769;28;20111;-56
2021/08/24 00:33:36;;;;;;;4.65;2.85;;;20.60;99.90;;;;;;5055305;28;20040;-55
2021/08/24 00:36:02;;;;;;;3.80;2.60;;;20.40;99.90;;;;;;5019855;28;20029;-54
2021/08/24 00:38:28;;;;;;;5.80;3.03;;;20.50;99.90;;;;;;5055066;28;20033;-55
2021/08/24 00:40:57;;;;;;;3.90;2.30;;;20.60;99.90;;;;;;5036130;28;20091;-52
2021/08/24 00:43:24;;;;;;;4.65;2.40;;;20.60;99.90;;;;;;5011265;28;20037;-52
2021/08/24 00:45:55;;;;;;;2.90;2.45;;;20.50;99.90;;;;;;5054491;28;20028;-52
2021/08/24 00:48:27;;;;;;;2.65;2.13;;;20.60;99.90;;;;;;5055000;28;20029;-54
2021/08/24 00:50:54;;;;;;;3.97;2.60;;;20.50;99.90;;;;;;5054627;28;20395;-53
2021/08/24 00:53:24;;;;;;;3.25;2.53;;;20.50;99.90;;;;;;5054693;28;20037;-55
2021/08/24 00:55:52;;;;;;;3.65;2.42;;;20.50;99.90;;;;;;5007923;28;20041;-55
2021/08/24 00:58:19;;;;;;;3.97;2.50;;;20.40;99.90;;;;;;5035363;28;20032;-55
2021/08/24 01:00:46;;;;;;;3.72;2.55;;;20.40;99.90;;;;;;5033540;28;20125;-52
2021/08/24 01:03:18;;;;;;;6.03;2.55;;;20.30;99.90;;;;;;5034994;28;20468;-57
2021/08/24 01:05:47;;;;;;;3.67;2.10;;;20.40;99.90;;;;;;5035256;28;20063;-56
2021/08/24 01:08:57;;;;;;;2.95;2.33;;;20.40;99.90;;;;;;5035242;28;20017;-53
2021/08/24 01:11:58;;;;;;;3.40;2.58;;;20.30;99.90;;;;;;5031960;28;20404;-55
2021/08/24 01:14:38;;;;;;;5.60;2.30;;;20.30;99.90;;;;;;5031945;28;20393;-54
2021/08/24 01:17:12;;;;;;;3.85;2.60;;;20.30;99.90;;;;;;5034978;28;20152;-56
2021/08/24 01:19:56;;;;;;;4.00;2.67;;;20.20;99.90;;;;;;5034985;28;20461;-54
2021/08/24 01:22:25;;;;;;;4.53;2.70;;;20.20;99.90;;;;;;5034789;28;20036;-56
2021/08/24 01:25:02;;;;;;;3.33;2.85;;;20.30;99.90;;;;;;5037273;28;20527;-55
2021/08/24 01:27:51;;;;;;;3.97;2.63;;;20.30;99.90;;;;;;5053776;28;20032;-55
2021/08/24 01:30:42;;;;;;;3.42;2.40;;;20.20;99.90;;;;;;4972486;28;20038;-55
2021/08/24 01:33:17;;;;;;;3.33;2.58;;;20.30;99.90;;;;;;4973057;28;20068;-57
2021/08/24 01:36:10;;;;;;;3.38;2.70;;;20.40;99.90;;;;;;4973346;28;20034;-55
2021/08/24 01:38:43;;;;;;;3.30;2.50;;;20.30;99.90;;;;;;4973056;28;20053;-53
2021/08/24 01:41:26;;;;;;;3.83;2.70;;;20.30;99.90;;;;;;4973229;28;20489;-54
2021/08/24 01:44:17;;;;;;;3.38;2.45;;;20.30;99.90;;;;;;4973299;28;20037;-56
2021/08/24 01:46:54;;;;;;;3.15;2.60;;;20.30;99.90;;;;;;4973558;28;20034;-55
2021/08/24 01:49:26;;;;;;;3.10;2.38;;;20.30;99.90;;;;;;4973516;28;20386;-55
2021/08/24 01:51:56;;;;;;;3.28;2.63;;;20.30;99.90;;;;;;4973465;28;20098;-54
2021/08/24 01:54:30;;;;;;;3.35;2.55;;;20.20;99.90;;;;;;4941243;28;20133;-53
2021/08/24 01:56:59;;;;;;;5.47;2.78;;;20.40;99.90;;;;;;4973348;28;20035;-55
2021/08/24 01:59:30;;;;;;;4.40;2.67;;;20.30;99.90;;;;;;4973506;28;20081;-54
2021/08/24 02:02:21;;;;;;;4.03;2.80;;;20.20;99.90;;;;;;4973333;28;20042;-56
2021/08/24 02:05:14;;;;;;;3.38;2.75;;;20.40;99.90;;;;;;4973312;28;20062;-56
2021/08/24 02:07:41;;;;;;;3.30;2.58;;;20.30;99.90;;;;;;4937298;28;20118;-54
2021/08/24 02:10:18;;;;;;;5.80;2.90;;;20.20;99.90;;;;;;4971378;28;20047;-53
2021/08/24 02:12:47;;;;;;;3.28;2.55;;;20.10;99.90;;;;;;4971782;28;20050;-55
2021/08/24 02:15:15;;;;;;;4.07;2.95;;;20.10;99.90;;;;;;4972211;28;20056;-53
2021/08/24 02:17:44;;;;;;;3.67;2.28;;;20.10;99.90;;;;;;4972754;28;20042;-54
2021/08/24 02:20:35;;;;;;;3.05;2.25;;;20.00;99.90;;;;;;4972073;28;20050;-55
2021/08/24 02:23:09;;;;;;;3.30;2.65;;;19.90;99.90;;;;;;4971178;28;20573;-54
2021/08/24 02:25:41;;;;;;;9.57;2.20;;;19.90;99.90;;;;;;4972024;28;20035;-53
2021/08/24 02:28:13;;;;;;;5.10;2.80;;;19.80;99.90;;;;;;4972071;28;20038;-53
2021/08/24 02:30:46;;;;;;;3.83;2.60;;;19.90;99.90;;;;;;4971973;28;20426;-55
2021/08/24 02:33:13;;;;;;;4.38;2.35;;;20.10;99.90;;;;;;4933517;29;20055;-54
2021/08/24 02:36:01;;;;;;;3.17;2.20;;;20.00;99.90;;;;;;4933921;29;20091;-55
2021/08/24 02:38:33;;;;;;;2.30;1.70;;;20.10;99.90;;;;;;4924637;29;20090;-52
2021/08/24 02:41:13;;;;;;;2.75;1.40;;;19.90;99.90;;;;;;4933374;29;20412;-57
2021/08/24 02:43:48;;;;;;;2.20;1.50;;;19.80;99.90;;;;;;4944746;28;20048;-54
2021/08/24 02:46:31;;;;;;;2.15;1.40;;;19.80;99.90;;;;;;5030330;28;20033;-52
2021/08/24 02:49:04;;;;;;;2.65;1.40;;;19.50;99.90;;;;;;5029895;28;20035;-57
2021/08/24 02:51:30;;;;;;;4.65;1.30;;;;;;;;;;5030740;28;20076;-55
2021/08/24 02:54:15;;;;;;;4.35;1.95;;;18.90;99.90;;;;;;5030378;28;20132;-56
2021/08/24 02:56:41;;;;;;;1.95;1.48;;;18.80;99.90;;;;;;5029859;28;20492;-57
2021/08/24 02:59:07;;;;;;;1.95;1.48;;;18.80;99.90;;;;;;5030989;28;20393;-55
2021/08/24 03:01:33;;;;;;;2.50;1.60;;;19.00;99.90;;;;;;5030414;28;20033;-56
2021/08/24 03:03:59;;;;;;;2.95;1.67;;;19.00;99.90;;;;;;5040504;28;20049;-55
2021/08/24 03:06:26;;;;;;;5.03;2.40;;;19.00;99.90;;;;;;5000937;28;20033;-54
2021/08/24 03:08:52;;;;;;;3.53;1.75;;;19.10;99.90;;;;;;5051705;28;20092;-53
2021/08/24 03:11:25;;;;;;;3.70;1.80;;;19.20;99.90;;;;;;5034705;28;20127;-57
2021/08/24 03:14:03;;;;;;;2.85;1.58;;;19.30;99.90;;;;;;5053089;28;20440;-53
2021/08/24 03:16:42;;;;;;;2.20;1.60;;;19.30;99.90;;;;;;5053348;28;20032;-55
2021/08/24 03:19:13;;;;;;;3.80;1.63;;;19.10;99.90;;;;;;5053172;28;20021;-56
2021/08/24 03:21:40;;;;;;;4.50;1.98;;;19.20;99.90;;;;;;5053214;28;20108;-52
2021/08/24 03:24:11;;;;;;;3.78;1.60;;;19.20;99.90;;;;;;5053189;28;20017;-55
2021/08/24 03:26:40;;;;;;;5.17;1.70;;;19.20;99.90;;;;;;5053149;28;20029;-55
2021/08/24 03:29:10;;;;;;;2.97;1.73;;;19.20;99.90;;;;;;5052883;28;20090;-54
2021/08/24 03:31:40;;;;;;;2.13;1.42;;;19.30;99.90;;;;;;5052932;28;20025;-57
2021/08/24 03:34:07;;;;;;;2.42;1.80;;;19.40;99.90;;;;;;5052544;28;20033;-57
2021/08/24 03:36:33;;;;;;;4.53;1.90;;;19.40;99.90;;;;;;5056484;28;20028;-53
2021/08/24 03:38:59;;;;;;;6.65;1.83;;;19.60;99.90;;;;;;5054729;28;20032;-55
2021/08/24 03:41:25;;;;;;;2.80;1.70;;;19.60;99.90;;;;;;5055907;28;20375;-55
2021/08/24 03:43:51;;;;;;;2.75;2.00;;;19.50;99.90;;;;;;5037319;28;20421;-55
2021/08/24 03:46:17;;;;;;;3.10;1.80;;;19.50;99.90;;;;;;5056269;28;20052;-56
2021/08/24 03:48:42;;;;;;;2.83;1.90;;;19.50;99.90;;;;;;4956609;28;20033;-54
2021/08/24 03:51:08;;;;;;;2.85;1.90;;;19.40;99.90;;;;;;5056661;28;20371;-52
2021/08/24 03:53:35;;;;;;;3.53;1.60;;;19.20;99.90;;;;;;5055791;28;20029;-52
2021/08/24 03:56:03;;;;;;;4.20;1.90;;;19.30;99.90;;;;;;5056364;28;20029;-55
2021/08/24 03:58:29;;;;;;;4.20;2.03;;;19.30;99.90;;;;;;5056336;28;20025;-52
2021/08/24 04:00:55;;;;;;;2.85;2.20;;;19.00;99.90;;;;;;5051818;28;20078;-59
2021/08/24 04:03:20;;;;;;;3.22;2.15;;;19.20;99.90;;;;;;5043937;28;20095;-56
2021/08/24 04:05:46;;;;;;;3.65;2.22;;;19.30;99.90;;;;;;5036303;28;20030;-54
2021/08/24 04:08:12;;;;;;;5.13;2.30;;;19.00;99.90;;;;;;5046049;28;20159;-55
2021/08/24 04:10:38;;;;;;;4.22;2.17;;;19.00;99.90;;;;;;5054458;28;20032;-53
2021/08/24 04:13:04;;;;;;;3.20;2.00;;;19.20;99.90;;;;;;5033594;28;20045;-56
2021/08/24 04:15:30;;;;;;;4.53;2.17;;;19.30;99.90;;;;;;5020586;28;20033;-57
2021/08/24 04:17:55;;;;;;;2.75;1.88;;;19.40;99.90;;;;;;5054574;28;20528;-53
2021/08/24 04:20:21;;;;;;;3.78;1.90;;;19.60;99.90;;;;;;5055513;28;20025;-53
2021/08/24 04:22:49;;;;;;;3.28;2.15;;;19.70;99.90;;;;;;5036719;28;20116;-55
2021/08/24 04:25:16;;;;;;;3.10;2.10;;;19.70;99.90;;;;;;5055005;28;20021;-55
2021/08/24 04:27:43;;;;;;;6.55;2.40;;;19.70;99.90;;;;;;5055172;28;20388;-55
2021/08/24 04:30:10;;;;;;;4.00;2.47;;;19.80;99.90;;;;;;5055222;28;20025;-54
2021/08/24 04:32:37;;;;;;;3.05;2.50;;;20.00;99.90;;;;;;5004028;28;20069;-55
2021/08/24 04:35:04;;;;;;;5.28;2.75;;;20.00;99.90;;;;;;5000948;28;20044;-54
2021/08/24 04:37:30;;;;;;;6.40;2.50;;;20.10;99.90;;;;;;5053938;28;20025;-56
2021/08/24 04:39:55;;;;;;;3.42;2.50;;;20.10;99.90;;;;;;5045273;28;20029;-55
2021/08/24 04:42:21;;;;;;;3.85;2.47;;;20.10;99.90;;;;;;5048975;28;20437;-54
2021/08/24 04:44:47;;;;;;;4.32;2.80;;;20.10;99.90;;;;;;5048195;28;20032;-56
2021/08/24 04:47:13;;;;;;;3.42;2.72;;;19.90;99.90;;;;;;5001459;28;20048;-53
2021/08/24 04:49:38;;;;;;;4.65;2.80;;;19.90;99.90;;;;;;5050929;28;21491;-53
2021/08/24 04:52:04;;;;;;;7.25;3.47;;;19.80;99.90;;;;;;5050810;28;20079;-55
2021/08/24 04:54:33;;;;;;;4.05;2.70;;;19.70;99.90;;;;;;5048899;28;20562;-56
2021/08/24 04:57:04;;;;;;;3.67;2.70;;;19.60;99.90;;;;;;5046306;28;20086;-58
2021/08/24 04:59:30;;;;;;;6.50;3.35;;;19.40;99.90;;;;;;5054865;28;20389;-53
2021/08/24 05:01:56;;;;;;;4.95;3.55;;;19.70;99.90;;;;;;5045208;28;20040;-53
2021/08/24 05:04:22;;;;;;;5.05;3.25;;;19.60;99.90;;;;;;5054799;28;20162;-55
2021/08/24 05:06:48;;;;;;;6.97;4.40;;;19.60;99.90;;;;;;5040712;28;20025;-55
2021/08/24 05:09:14;;;;;;;4.70;3.38;;;19.60;99.90;;;;;;5017919;28;20030;-55
2021/08/24 05:11:40;;;;;;;8.18;3.80;;;19.60;99.90;;;;;;5055026;28;20025;-55
2021/08/24 05:14:05;;;;;;;3.63;3.17;;;19.70;99.90;;;;;;5045616;28;20048;-55
2021/08/24 05:16:31;;;;;;;7.68;3.22;;;19.80;99.90;;;;;;5047957;28;20569;-55
2021/08/24 05:18:57;;;;;;;5.65;3.40;;;;;;;;;;5025800;28;20408;-55
2021/08/24 05:21:23;;;;;;;4.13;3.20;;;19.60;99.90;;;;;;5052922;28;20036;-55
2021/08/24 05:23:49;;;;;;;6.25;3.80;;;19.70;99.90;;;;;;5053714;28;20471;-55
2021/08/24 05:26:20;;;;;;;3.88;3.22;;;19.80;99.90;;;;;;5018370;28;20033;-55
2021/08/24 05:28:46;;;;;;;4.35;3.95;;;19.80;99.90;;;;;;5054308;28;20029;-55
2021/08/24 05:31:13;;;;;;;4.25;3.30;;;19.90;99.90;;;;;;5052754;28;20472;-56
2021/08/24 05:33:38;;;;;;;6.35;4.28;;;19.70;99.90;;;;;;5053217;28;20392;-56
2021/08/24 05:36:04;;;;;;;6.43;3.92;;;19.70;99.90;;;;;;5053958;28;20025;-56
2021/08/24 05:38:32;;;;;;;5.05;4.35;;;19.60;99.90;;;;;;5042899;28;20059;-55
2021/08/24 05:40:58;;;;;;;7.10;3.92;;;19.80;99.90;;;;;;5039894;28;21435;-55
2021/08/24 05:43:26;;;;;;;4.88;3.63;;;19.90;99.90;;;;;;5040631;28;20062;-56
2021/08/24 05:46:12;;;;;;;5.90;3.95;;;19.90;99.90;;;;;;5053943;28;20035;-55
2021/08/24 05:48:39;;;;;;;7.50;3.85;;;19.90;99.90;;;;;;5046722;28;20062;-55
2021/08/24 05:51:16;;;;;;;6.70;3.95;;;19.90;99.90;;;;;;5053370;28;20051;-55
2021/08/24 05:53:42;;;;;;;4.88;3.92;;;19.90;99.90;;;;;;5050536;28;20033;-55
2021/08/24 05:56:14;;;;;;;6.95;3.60;;;20.00;99.90;;;;;;4995839;28;20488;-55
2021/08/24 05:58:40;;;;;;;6.15;4.00;;;19.90;99.90;;;;;;5040974;28;20029;-55
2021/08/24 06:01:07;;;;;;;4.40;3.88;;;19.90;99.90;;;;;;5034155;28;20025;-55
2021/08/24 06:03:33;;;;;;;4.75;3.78;;;20.00;99.90;;;;;;5033895;28;20099;-55
2021/08/24 06:05:59;;;;;;;6.65;4.40;;;20.00;99.90;;;;;;5032191;28;20041;-56
2021/08/24 06:08:26;;;;;;;4.97;4.18;;;20.00;99.90;;;;;;5017387;28;20191;-56
2021/08/24 06:10:52;;;;;;;4.90;4.13;;;20.10;99.90;;;;;;5031723;28;20037;-56
2021/08/24 06:13:18;;;;;;;6.15;4.60;;;20.20;99.90;;;;;;5031948;28;20037;-55
2021/08/24 06:15:43;;;;;;;5.57;4.78;;;20.20;99.90;;;;;;5031279;28;20527;-55
2021/08/24 06:18:09;;;;;;;7.28;4.82;;;20.10;99.90;;;;;;5031735;28;20037;-55
2021/08/24 06:20:35;;;;;;;6.18;4.95;;;;;;;;;;5031786;28;20038;-55
2021/08/24 06:23:01;;;;;;;6.38;4.80;;;20.30;99.90;;;;;;5037812;28;20029;-55
2021/08/24 06:25:27;;;;;;;5.72;4.63;;;20.50;99.90;;;;;;5043889;28;20543;-56
2021/08/24 06:27:52;;;;;;;5.53;4.45;;;20.60;99.90;;;;;;5042461;28;20037;-56
2021/08/24 06:30:19;;;;;;;7.10;5.15;;;20.80;99.90;;;;;;5042223;28;20029;-55
2021/08/24 06:32:48;;;;;;;6.75;4.65;;;20.60;99.90;;;;;;5045419;28;20128;-56
2021/08/24 06:35:16;;;;;;;5.30;4.47;;;20.70;99.90;;;;;;5042322;28;20464;-55
2021/08/24 06:37:42;;;;;;;8.13;4.50;;;20.70;99.90;;;;;;5044429;28;20056;-55
2021/08/24 06:40:09;;;;;;;6.00;5.38;;;20.70;99.90;;;;;;5043434;28;20048;-55
2021/08/24 06:42:44;;;;;;;6.78;5.20;;;20.50;99.90;;;;;;5011595;28;20090;-55
2021/08/24 06:45:33;;;;;;;6.05;4.47;;;20.40;99.90;;;;;;5038300;28;20040;-55
2021/08/24 06:48:00;;;;;;;6.22;4.40;;;20.40;99.90;;;;;;5015170;28;20088;-55
2021/08/24 06:50:28;;;;;;;5.88;4.82;;;20.40;99.90;;;;;;5033282;28;20033;-55
2021/08/24 06:52:54;;;;;;;9.52;4.38;;;20.30;99.90;;;;;;5015136;28;20091;-55
2021/08/24 06:55:21;;;;;;;6.43;4.97;;;20.50;99.90;;;;;;5043236;28;20029;-55
2021/08/24 06:57:46;;;;;;;5.78;4.45;;;20.60;99.90;;;;;;5036046;28;20063;-55
2021/08/24 07:00:18;;;;;;;6.22;4.30;;;21.00;99.90;;;;;;5039231;28;20499;-56
2021/08/24 07:03:09;;;;;;;5.43;4.22;;;21.00;99.90;;;;;;5032943;28;20136;-55
2021/08/24 07:05:36;;;;;;;7.20;4.35;;;21.20;99.90;;;;;;5041846;28;20049;-55
2021/08/24 07:08:02;;;;;;;8.63;4.65;;;21.30;99.90;;;;;;5042569;28;20025;-55
2021/08/24 07:10:28;;;;;;;5.78;3.92;;;21.30;99.90;;;;;;5035096;28;20428;-55
2021/08/24 07:12:54;;;;;;;4.75;3.92;;;21.10;99.90;;;;;;5053122;28;20045;-55
2021/08/24 07:15:22;;;;;;;7.75;4.80;;;20.60;99.90;;;;;;5026483;28;20045;-55
2021/08/24 07:17:52;;;;;;;8.85;4.65;;;20.60;99.90;;;;;;5054634;28;20056;-55
2021/08/24 07:20:19;;;;;;;5.63;4.47;;;20.70;99.90;;;;;;5014310;28;20037;-56
2021/08/24 07:22:46;;;;;;;6.03;4.72;;;20.70;99.90;;;;;;5052613;28;20124;-57
2021/08/24 07:25:16;;;;;;;7.47;4.72;;;20.70;99.90;;;;;;5056443;28;20476;-56
2021/08/24 07:27:42;;;;;;;7.88;4.70;;;21.00;99.90;;;;;;4996227;28;20398;-54
2021/08/24 07:30:08;;;;;;;4.72;4.15;;;20.90;99.90;;;;;;5009558;28;20037;-54
2021/08/24 07:32:34;;;;;;;4.78;4.00;;;21.00;99.90;;;;;;4948604;28;20050;-55
2021/08/24 07:35:01;;;;;;;5.38;4.72;;;20.80;99.90;;;;;;5010516;28;20056;-54
2021/08/24 07:37:27;;;;;;;5.25;4.05;;;20.90;99.90;;;;;;5001370;28;20044;-54
2021/08/24 07:39:53;;;;;;;6.03;4.70;;;20.90;99.90;;;;;;5008834;28;20029;-55
2021/08/24 07:42:18;;;;;;;6.68;4.80;;;21.00;99.90;;;;;;5009421;28;20168;-54
2021/08/24 07:44:44;;;;;;;6.35;4.95;;;21.10;99.90;;;;;;5012982;28;20034;-55
2021/08/24 07:47:10;;;;;;;5.85;4.72;;;21.20;99.90;;;;;;5009692;28;20112;-54
2021/08/24 07:49:37;;;;;;;4.60;4.18;;;20.80;99.90;;;;;;5011348;28;20505;-55
2021/08/24 07:52:06;;;;;;;5.78;4.55;;;20.70;99.90;;;;;;5010651;28;20029;-56
2021/08/24 07:54:32;;;;;;;5.88;4.78;;;20.60;99.90;;;;;;4991161;28;20053;-55
2021/08/24 07:56:59;;;;;;;5.82;4.53;;;20.60;99.90;;;;;;5013099;28;20037;-56
2021/08/24 07:59:24;;;;;;;6.20;5.25;;;20.50;99.90;;;;;;5046598;28;20041;-55
2021/08/24 08:01:54;;;;;;;6.00;5.15;;;20.50;99.90;;;;;;5049756;28;20095;-55
2021/08/24 08:04:25;;;;;;;5.75;4.55;;;20.60;99.90;;;;;;5050077;28;20477;-55
2021/08/24 08:06:50;;;;;;;6.90;5.28;;;20.70;99.90;;;;;;5053977;28;20112;-55
2021/08/24 08:09:20;;;;;;;6.45;4.88;;;20.60;99.90;;;;;;5054613;28;20544;-55
2021/08/24 08:11:46;;;;;;;6.65;5.30;;;20.70;99.90;;;;;;5052301;28;20498;-55
2021/08/24 08:14:13;;;;;;;19.88;17.88;;;20.80;99.90;;;;;;5019768;28;20079;-55
2021/08/24 08:16:39;;;;;;;10.93;9.80;;;20.80;99.90;;;;;;5052264;28;20083;-55
2021/08/24 08:19:05;;;;;;;7.57;6.45;;;20.60;99.90;;;;;;5046041;28;20042;-55
2021/08/24 08:21:33;;;;;;;6.38;5.65;;;20.60;99.90;;;;;;5049017;28;20049;-56
2021/08/24 08:24:00;;;;;;;8.18;5.78;;;20.50;99.90;;;;;;5043414;28;20076;-55
2021/08/24 08:26:29;;;;;;;6.68;5.60;;;20.50;99.90;;;;;;5052292;28;20063;-55
2021/08/24 08:28:55;;;;;;;25.77;23.40;;;20.60;99.90;;;;;;5049796;28;20025;-53
2021/08/24 08:31:23;;;;;;;26.20;23.83;;;20.70;99.90;;;;;;5047797;28;20369;-55
2021/08/24 08:33:49;;;;;;;15.98;11.02;;;20.90;99.90;;;;;;5039748;28;20116;-55
2021/08/24 08:36:15;;;;;;;9.02;6.90;;;21.20;99.90;;;;;;5050290;28;20033;-55
2021/08/24 08:38:41;;;;;;;7.95;6.00;;;21.20;99.90;;;;;;5031495;28;20044;-55
2021/08/24 08:41:18;;;;;;;8.45;5.10;;;21.40;99.90;;;;;;4965363;28;20052;-55
2021/08/24 08:44:00;;;;;;;7.57;5.88;;;21.60;99.90;;;;;;5046317;28;20029;-55
2021/08/24 08:47:01;;;;;;;7.72;5.80;;;21.70;99.90;;;;;;5047206;28;20439;-55
2021/08/24 08:49:49;;;;;;;10.60;7.30;;;21.80;99.90;;;;;;5048367;28;20499;-56
2021/08/24 08:52:35;;;;;;;6.28;4.75;;;22.00;99.90;;;;;;5052752;28;20119;-56
2021/08/24 08:55:10;;;;;;;9.35;5.63;;;21.80;99.90;;;;;;5048806;28;20042;-55
2021/08/24 08:57:53;;;;;;;7.72;5.57;;;21.80;99.90;;;;;;5052024;28;20033;-56
2021/08/24 09:00:33;;;;;;;7.50;5.60;;;21.70;99.90;;;;;;5049410;28;20112;-55
2021/08/24 09:03:02;;;;;;;5.60;4.93;;;21.70;99.90;;;;;;5043654;28;20039;-56
2021/08/24 09:05:29;;;;;;;6.85;5.78;;;21.50;99.90;;;;;;5045931;28;20067;-55
2021/08/24 09:08:00;;;;;;;9.35;5.85;;;21.50;99.90;;;;;;5052723;28;20029;-56
2021/08/24 09:10:41;;;;;;;7.68;4.75;;;21.40;99.90;;;;;;5021188;28;20037;-55
2021/08/24 09:13:16;;;;;;;8.88;4.72;;;21.50;99.90;;;;;;5051747;28;20094;-56
2021/08/24 09:15:57;;;;;;;5.88;5.10;;;21.40;99.90;;;;;;5047263;28;20025;-57
2021/08/24 09:18:51;;;;;;;5.10;4.60;;;21.30;99.90;;;;;;5046822;28;20025;-56
2021/08/24 09:21:29;;;;;;;4.45;3.88;;;21.40;99.90;;;;;;4986544;28;20038;-56
2021/08/24 09:23:56;;;;;;;4.75;4.22;;;21.60;99.90;;;;;;4989843;28;20121;-56
2021/08/24 09:26:49;;;;;;;4.50;4.10;;;21.70;99.90;;;;;;4942145;28;20505;-56
2021/08/24 09:29:18;;;;;;;;;;;21.80;99.90;;;;;;4990080;28;20033;-56
2021/08/24 09:31:46;;;;;;;11.88;4.72;;;21.70;99.90;;;;;;4989321;28;19957;-55
2021/08/24 09:34:15;;;;;;;9.05;4.38;;;21.70;99.90;;;;;;4990726;28;20039;-56
2021/08/24 09:36:41;;;;;;;5.40;4.78;;;21.70;99.90;;;;;;4989587;28;20038;-56
2021/08/24 09:39:08;;;;;;;5.05;4.53;;;21.80;99.90;;;;;;4990656;28;20173;-54
2021/08/24 09:41:38;;;;;;;5.75;4.10;;;21.80;99.90;;;;;;4992609;28;20089;-54
2021/08/24 09:44:25;;;;;;;3.95;3.33;;;21.90;99.90;;;;;;4990655;28;20042;-57
2021/08/24 09:46:53;;;;;;;4.35;3.60;;;21.90;99.90;;;;;;4919300;29;20125;-59
2021/08/24 09:49:22;;;;;;;4.38;3.95;;;21.90;99.90;;;;;;4951737;28;20058;-63
2021/08/24 09:52:01;;;;;;;4.72;4.13;;;22.00;99.90;;;;;;4952205;29;20039;-60
2021/08/24 09:54:36;;;;;;;5.18;3.72;;;22.00;99.90;;;;;;4951954;29;20046;-57
2021/08/24 09:57:16;;;;;;;4.38;3.08;;;;;;;;;;4952449;28;20047;-55
2021/08/24 09:59:58;;;;;;;3.70;3.30;;;22.30;99.90;;;;;;5026684;28;20041;-58
2021/08/24 10:02:46;;;;;;;3.97;3.08;;;22.20;99.90;;;;;;5020648;28;20045;-54
2021/08/24 10:05:13;;;;;;;4.85;3.15;;;22.50;99.90;;;;;;5030006;28;20045;-56
2021/08/24 10:07:43;;;;;;;3.70;3.30;;;22.40;99.90;;;;;;5027890;28;20042;-55
2021/08/24 10:10:30;;;;;;;5.47;3.58;;;22.40;99.90;;;;;;5025278;28;20037;-56
2021/08/24 10:12:58;;;;;;;5.32;3.90;;;22.40;99.90;;;;;;5024124;28;20139;-55
2021/08/24 10:15:29;;;;;;;5.45;3.45;;;22.60;99.90;;;;;;5026229;28;20401;-55
2021/08/24 10:18:21;;;;;;;4.22;3.40;;;23.00;99.90;;;;;;5028208;28;20553;-55
2021/08/24 10:20:53;;;;;;;3.72;2.60;;;22.90;99.90;;;;;;5044490;28;20033;-56
2021/08/24 10:23:24;;;;;;;5.40;3.10;;;;;;;;;;5046297;28;20112;-55
2021/08/24 10:25:53;;;;;;;4.90;3.37;;;22.90;99.90;;;;;;5048290;28;20025;-56
2021/08/24 10:28:26;;;;;;;5.93;3.38;;;23.10;99.90;;;;;;5046432;28;20744;-54
2021/08/24 10:30:57;;;;;;;5.75;2.92;;;23.00;99.90;;;;;;5028852;28;20084;-56
2021/08/24 10:33:25;;;;;;;7.05;3.95;;;23.00;99.90;;;;;;5045416;28;20070;-56
2021/08/24 10:35:57;;;;;;;4.20;3.30;;;23.10;99.90;;;;;;5026990;28;20458;-57
2021/08/24 10:38:54;;;;;;;4.80;3.08;;;23.40;99.90;;;;;;5038962;28;20041;-56
2021/08/24 10:41:27;;;;;;;4.53;3.30;;;23.50;99.90;;;;;;5051214;28;20061;-56
2021/08/24 10:43:58;;;;;;;4.38;3.17;;;23.20;99.90;;;;;;5051725;28;20107;-57
2021/08/24 10:46:24;;;;;;;4.68;3.53;;;23.20;99.90;;;;;;5052211;28;20078;-57
2021/08/24 10:48:50;;;;;;;5.90;3.75;;;23.40;99.90;;;;;;5049018;28;20108;-58
2021/08/24 10:51:19;;;;;;;6.10;4.15;;;23.30;99.90;;;;;;5046555;28;20033;-56
2021/08/24 10:54:24;;;;;;;4.70;3.70;;;;;;;;;;5047102;28;20076;-56
2021/08/24 10:57:22;;;;;;;4.85;3.78;;;23.50;99.90;;;;;;4973114;28;20050;-56
2021/08/24 11:00:20;;;;;;;4.60;3.75;;;23.70;99.90;;;;;;4913747;29;20535;-56
2021/08/24 11:02:51;;;;;;;5.15;4.05;;;23.80;99.90;;;;;;4913606;29;20043;-56
2021/08/24 11:05:36;;;;;;;8.93;3.72;;;23.80;99.90;;;;;;4913752;29;20134;-55
2021/08/24 11:08:28;;;;;;;4.40;3.50;;;24.00;99.90;;;;;;4910895;29;20051;-56
2021/08/24 11:11:33;;;;;;;3.90;3.50;;;23.90;99.90;;;;;;4913189;29;20400;-55
2021/08/24 11:14:03;;;;;;;5.47;3.80;;;24.00;99.90;;;;;;4894787;29;20463;-55
2021/08/24 11:17:08;;;;;;;4.25;2.92;;;24.10;99.90;;;;;;4894410;29;20131;-55
2021/08/24 11:20:04;;;;;;;5.47;3.30;;;23.70;99.90;;;;;;4894938;29;20080;-56
2021/08/24 11:22:40;;;;;;;4.18;3.25;;;23.70;99.90;;;;;;4894598;29;20077;-55
2021/08/24 11:25:24;;;;;;;4.10;3.33;;;23.50;99.90;;;;;;4865591;29;20509;-56
2021/08/24 11:28:01;;;;;;;6.30;4.70;;;23.40;99.90;;;;;;4907696;28;20429;-56
2021/08/24 11:30:55;;;;;;;4.65;3.90;;;23.20;99.90;;;;;;4966232;28;20047;-56
2021/08/24 11:33:38;;;;;;;6.38;4.18;;;23.20;99.90;;;;;;4932476;29;20055;-56
2021/08/24 11:36:17;;;;;;;6.15;4.72;;;22.90;99.90;;;;;;4945816;28;20038;-56
2021/08/24 11:38:51;;;;;;;6.82;4.72;;;22.60;99.90;;;;;;4968719;28;20487;-55
2021/08/24 11:41:25;;;;;;;5.43;4.93;;;22.50;99.90;;;;;;4969256;28;20111;-56
2021/08/24 11:44:02;;;;;;;6.50;4.43;;;22.40;99.90;;;;;;4972634;28;20489;-56
2021/08/24 11:46:45;;;;;;;5.95;4.68;;;22.20;99.90;;;;;;4988216;28;20030;-56
2021/08/24 11:49:16;;;;;;;7.80;4.53;;;22.50;99.90;;;;;;4989913;28;20453;-55
2021/08/24 11:51:58;;;;;;;4.65;4.10;;;22.40;99.90;;;;;;4987810;28;20038;-56
2021/08/24 11:54:52;;;;;;;6.10;4.07;;;22.50;99.90;;;;;;4957419;28;20047;-56
2021/08/24 11:57:40;;;;;;;5.20;4.25;;;22.40;99.90;;;;;;4991418;28;20042;-56
2021/08/24 12:00:10;;;;;;;8.35;4.20;;;22.30;99.90;;;;;;4992436;28;20121;-56
2021/08/24 12:02:39;;;;;;;5.30;3.90;;;22.40;99.90;;;;;;4951188;28;20071;-55
2021/08/24 12:05:18;;;;;;;5.53;4.07;;;22.50;99.90;;;;;;4974372;28;20042;-55
2021/08/24 12:07:44;;;;;;;5.38;3.83;;;22.70;99.90;;;;;;4972069;28;20039;-55
2021/08/24 12:10:24;;;;;;;4.30;3.90;;;23.00;99.90;;;;;;4968337;28;20056;-56
2021/08/24 12:12:57;;;;;;;5.80;3.45;;;23.10;99.90;;;;;;5013336;28;20477;-56
2021/08/24 12:15:43;;;;;;;6.28;3.85;;;23.20;99.90;;;;;;5012940;28;20168;-56
2021/08/24 12:18:17;;;;;;;6.60;3.65;;;23.30;99.90;;;;;;5008083;28;20432;-56
2021/08/24 12:21:16;;;;;;;5.55;3.13;;;23.40;99.90;;;;;;4996042;28;20045;-56
2021/08/24 12:23:43;;;;;;;3.75;3.20;;;23.30;99.90;;;;;;5007164;28;20038;-56
2021/08/24 12:26:26;;;;;;;4.38;3.13;;;23.40;99.90;;;;;;4996151;28;20033;-56
2021/08/24 12:28:56;;;;;;;4.40;3.47;;;23.60;99.70;;;;;;5012545;28;20069;-56
2021/08/24 12:31:25;;;;;;;6.03;3.42;;;23.60;99.40;;;;;;4995104;28;20038;-56
2021/08/24 12:33:51;;;;;;;5.25;3.30;;;23.70;99.30;;;;;;4978205;28;20397;-56
2021/08/24 12:36:19;;;;;;;5.80;3.10;;;23.60;99.50;;;;;;5011666;28;20068;-55
2021/08/24 12:38:50;;;;;;;6.53;3.17;;;23.60;99.20;;;;;;5006073;28;20053;-55
2021/08/24 12:41:34;;;;;;;6.47;4.33;;;23.60;99.30;;;;;;5011055;28;20030;-56
2021/08/24 12:44:11;;;;;;;13.68;3.45;;;23.80;98.80;;;;;;5009767;28;20046;-56
2021/08/24 12:46:41;;;;;;;8.15;2.53;;;23.80;98.60;;;;;;5009154;28;20477;-55
2021/08/24 12:49:28;;;;;;;3.58;2.67;;;23.70;98.90;;;;;;4994472;28;20038;-56
2021/08/24 12:52:17;;;;;;;5.32;2.67;;;23.70;98.70;;;;;;5013534;28;20028;-55
2021/08/24 12:54:49;;;;;;;3.33;2.40;;;23.90;98.60;;;;;;5042288;28;20033;-56
2021/08/24 12:57:25;;;;;;;3.10;2.30;;;23.50;97.70;;;;;;5042475;28;20036;-55
2021/08/24 12:59:52;;;;;;;2.55;2.03;;;23.50;97.80;;;;;;5050780;28;20029;-56
2021/08/24 13:02:35;;;;;;;4.22;2.25;;;23.60;98.40;;;;;;5052343;28;20033;-55
2021/08/24 13:05:13;;;;;;;6.28;2.20;;;23.70;98.00;;;;;;5051971;28;20055;-56
2021/08/24 13:07:57;;;;;;;3.35;2.28;;;24.00;96.80;;;;;;5051448;28;20056;-56
2021/08/24 13:10:46;;;;;;;2.78;2.35;;;24.00;96.90;;;;;;5039595;28;20064;-56
2021/08/24 13:13:30;;;;;;;3.88;2.25;;;24.30;96.70;;;;;;5045482;28;20047;-56
2021/08/24 13:16:09;;;;;;;4.95;2.25;;;24.50;96.00;;;;;;5047223;28;20124;-56